Terminal Aerodrome Forecast
Issued by NWS

Home | Current Version | Previous Version | Text Only | Print | Product List | Glossary On
Versions: 1 2 3 4 5 6 7 8 9 10 11 12 13 14 15
010
FTUS42 KFFC 100521
TAFRYY
TAF
KRYY 100521Z 1006/1106 33004KT P6SM SKC
     FM101400 04004KT P6SM SKC
     FM101800 07005KT P6SM SKC
     FM110000 10003KT P6SM FEW250
      AMD NOT SKED TIL 101200=

USA.gov is the U.S. government's official web portal to all federal, state and local government web resources and services.